CheckWX is a tool to help pilots better visualize weather data.  It is not intended as a substitute for an official pre-flight weather briefing.

01:11:27 UTC

KNLC METAR
Lemoore NAS (Reeves Field) Airport
Lemoore, California, USA
Current

15 mins ago

KNLC 060056Z 13004KT 10SM FEW028 OVC200 15/11 A3007 RMK AO2 SLP182 RH/77 T01500111
Observed
Dec-6 @ 00:56 UTC
Wind
  • 130° at 4 KTS
Visibility
10 SM
Flight Rules
VFR
Cloud Levels
  • Few at 2,800' AGL
  • Overcast at 20,000' AGL
Temperature
15°C / 59°F
Dewpoint
11°C / 52°F
Humidity
77%
Altimeter
30.07" Hg
Pressure
1018.32 hPa
Previous

1 hour ago

KNLC 052356Z 14004KT 10SM FEW028 FEW045 OVC200 16/11 A3007 RMK AO2 SLP184 RH/67 T01610111 10178 20128 56006
Observed
Dec-5 @ 23:56 UTC
Wind
  • 140° at 4 KTS
Visibility
10 SM
Flight Rules
VFR
Cloud Levels
  • Few at 2,800' AGL
  • Few at 4,500' AGL
  • Overcast at 20,000' AGL
Temperature
16°C / 61°F
Dewpoint
11°C / 52°F
Humidity
72%
Altimeter
30.07" Hg
Pressure
1018.32 hPa
Previous

2 hours ago

KNLC 052256Z 12006KT 10SM FEW028 FEW045 OVC240 17/09 A3008 RMK AO2 SLP185 RH/60 T01720094
Observed
Dec-5 @ 22:56 UTC
Wind
  • 120° at 6 KTS
Visibility
10 SM
Flight Rules
VFR
Cloud Levels
  • Few at 2,800' AGL
  • Few at 4,500' AGL
  • Overcast at 24,000' AGL
Temperature
17°C / 63°F
Dewpoint
C / 48°F
Humidity
59%
Altimeter
30.08" Hg
Pressure
1018.62 hPa